Time;durP1;ratioP1;P1;durP2;ratioP2;P2;SDS_P1;SDS_P2;PMS_P1;PMS_P2;Temp;Humidity;BMP_temperature;BMP_pressure;BME280_temperature;BME280_humidity;BME280_pressure;Samples;Min_cycle;Max_cycle;Signal;HPM_P1;HPM_P2
2020/12/21 00:01:29;;;;;;;28.58;17.20;;;4.60;99.90;;;;;;8298601;28;20025;-70
2020/12/21 00:05:30;;;;;;;28.92;17.80;;;4.60;99.90;;;;;;8298279;28;20030;-70
2020/12/21 00:09:30;;;;;;;29.52;16.70;;;4.60;99.90;;;;;;8298044;28;20060;-70
2020/12/21 00:13:31;;;;;;;34.45;17.23;;;4.60;99.90;;;;;;8298622;28;20033;-70
2020/12/21 00:17:34;;;;;;;33.53;19.05;;;4.60;99.90;;;;;;8297822;28;20030;-70
2020/12/21 00:21:35;;;;;;;40.97;19.70;;;4.40;99.90;;;;;;8296767;28;20502;-70
2020/12/21 00:25:36;;;;;;;31.67;18.80;;;4.40;99.90;;;;;;8297580;28;20018;-71
2020/12/21 00:29:36;;;;;;;28.67;17.25;;;4.40;99.90;;;;;;8297572;28;20065;-70
2020/12/21 00:33:37;;;;;;;30.60;17.75;;;4.50;99.90;;;;;;8296646;28;20376;-70
2020/12/21 00:37:37;;;;;;;30.48;18.92;;;4.60;99.90;;;;;;8297385;28;20450;-70
2020/12/21 00:41:42;;;;;;;35.40;19.73;;;4.60;99.90;;;;;;8296359;28;20029;-70
2020/12/21 00:45:43;;;;;;;32.00;18.25;;;4.60;99.90;;;;;;8297607;28;20026;-70
2020/12/21 00:49:43;;;;;;;28.92;18.13;;;4.60;99.90;;;;;;8297551;28;20033;-69
2020/12/21 00:53:44;;;;;;;27.25;16.02;;;4.60;99.90;;;;;;8296739;28;20110;-71
2020/12/21 00:57:45;;;;;;;30.15;16.85;;;4.60;99.90;;;;;;8295097;28;20025;-70
2020/12/21 01:01:46;;;;;;;24.88;15.65;;;4.60;99.90;;;;;;8296431;28;20033;-70
2020/12/21 01:05:47;;;;;;;21.23;13.02;;;4.60;99.90;;;;;;8296611;28;20075;-70
2020/12/21 01:09:47;;;;;;;19.42;12.65;;;4.50;99.90;;;;;;8294973;28;20166;-70
2020/12/21 01:13:49;;;;;;;18.73;13.20;;;4.50;99.90;;;;;;8295220;28;20026;-70
2020/12/21 01:17:49;;;;;;;21.58;14.43;;;4.40;99.90;;;;;;8296179;28;20037;-70
2020/12/21 01:21:50;;;;;;;31.52;17.23;;;4.30;99.90;;;;;;8296238;28;20069;-70
2020/12/21 01:25:50;;;;;;;31.20;18.45;;;4.40;99.90;;;;;;8295660;28;20106;-71
2020/12/21 01:29:51;;;;;;;31.33;18.20;;;4.50;99.90;;;;;;8284019;28;20395;-76
2020/12/21 01:33:52;;;;;;;30.92;19.50;;;4.90;99.90;;;;;;8280453;28;20022;-72
2020/12/21 01:37:52;;;;;;;32.70;19.15;;;5.20;99.90;;;;;;8288007;28;20101;-74
2020/12/21 01:41:53;;;;;;;26.17;15.48;;;4.90;99.90;;;;;;8294378;28;20030;-73
2020/12/21 01:45:53;;;;;;;27.13;16.45;;;4.80;99.90;;;;;;8310853;28;20753;-72
2020/12/21 01:49:54;;;;;;;28.55;17.17;;;4.70;99.90;;;;;;8295345;28;20025;-74
2020/12/21 01:53:55;;;;;;;29.15;17.20;;;4.60;99.90;;;;;;8295826;28;20018;-74
2020/12/21 01:57:56;;;;;;;28.83;17.25;;;4.80;99.90;;;;;;8310468;28;20022;-74
2020/12/21 02:02:34;;;;;;;34.47;18.27;;;4.80;99.90;;;;;;8294700;28;20030;-73
2020/12/21 02:06:35;;;;;;;31.08;18.33;;;5.10;99.90;;;;;;8293050;28;20040;-73
2020/12/21 02:10:35;;;;;;;31.02;17.50;;;5.00;99.90;;;;;;8294046;28;20025;-74
2020/12/21 02:14:36;;;;;;;28.70;17.88;;;4.90;99.90;;;;;;8293813;28;20152;-74
2020/12/21 02:18:36;;;;;;;33.28;17.80;;;4.90;99.90;;;;;;8294048;28;20034;-72
2020/12/21 02:22:37;;;;;;;30.55;18.15;;;4.80;99.90;;;;;;8310111;28;20025;-73
2020/12/21 02:26:37;;;;;;;32.45;18.73;;;4.70;99.90;;;;;;8291678;28;20495;-74
2020/12/21 02:30:38;;;;;;;31.25;19.05;;;4.70;99.90;;;;;;8294466;28;20030;-73
2020/12/21 02:34:38;;;;;;;34.55;19.42;;;4.70;99.90;;;;;;8293318;28;20403;-73
2020/12/21 02:38:39;;;;;;;33.65;19.60;;;4.70;99.90;;;;;;8293948;28;20069;-72
2020/12/21 02:42:40;;;;;;;32.60;18.88;;;5.00;99.90;;;;;;8292340;28;20028;-73
2020/12/21 02:46:43;;;;;;;33.63;19.20;;;5.00;99.90;;;;;;8293909;28;20494;-73
2020/12/21 02:50:44;;;;;;;29.83;18.05;;;5.00;99.90;;;;;;8292373;28;20032;-73
2020/12/21 02:54:46;;;;;;;32.83;18.95;;;5.00;99.90;;;;;;8290159;28;20022;-74
2020/12/21 02:58:46;;;;;;;32.38;19.10;;;4.80;99.90;;;;;;8276644;28;20515;-74
2020/12/21 03:02:47;;;;;;;32.25;18.67;;;4.70;99.90;;;;;;8261657;28;20049;-72
2020/12/21 03:06:47;;;;;;;31.10;18.55;;;4.90;99.90;;;;;;8278596;28;20030;-74
2020/12/21 03:10:48;;;;;;;32.13;18.80;;;4.90;99.90;;;;;;8292036;28;20037;-74
2020/12/21 03:14:49;;;;;;;29.25;17.95;;;5.00;99.90;;;;;;8293705;28;20695;-74
2020/12/21 03:18:50;;;;;;;29.75;17.38;;;5.10;99.90;;;;;;8293106;28;20045;-76
2020/12/21 03:22:51;;;;;;;29.85;18.38;;;5.00;99.90;;;;;;8293477;28;20045;-76
2020/12/21 03:26:51;;;;;;;29.27;18.15;;;4.90;99.90;;;;;;8296983;28;20037;-75
2020/12/21 03:30:52;;;;;;;33.00;19.92;;;4.90;99.90;;;;;;8299311;28;20030;-76
2020/12/21 03:34:52;;;;;;;33.85;18.85;;;4.90;99.90;;;;;;8299457;28;20038;-75
2020/12/21 03:38:53;;;;;;;32.08;19.02;;;4.80;99.90;;;;;;8314381;28;20446;-76
2020/12/21 03:42:53;;;;;;;36.70;20.27;;;4.70;99.90;;;;;;8314941;28;20018;-75
2020/12/21 03:46:54;;;;;;;32.80;19.13;;;4.60;99.90;;;;;;8298124;28;20455;-75
2020/12/21 03:50:55;;;;;;;33.03;18.52;;;4.90;99.90;;;;;;8297840;28;20026;-76
2020/12/21 03:54:55;;;;;;;30.40;17.65;;;5.00;99.90;;;;;;8297653;28;20037;-75
2020/12/21 03:58:56;;;;;;;31.75;17.63;;;4.80;99.90;;;;;;8298380;28;20695;-75
2020/12/21 04:02:56;;;;;;;33.22;19.33;;;4.60;99.90;;;;;;8298756;28;20506;-75
2020/12/21 04:06:57;;;;;;;35.03;18.45;;;4.50;99.90;;;;;;8298472;28;20025;-76
2020/12/21 04:11:00;;;;;;;33.95;19.40;;;4.30;99.90;;;;;;8298010;28;20029;-76
2020/12/21 04:15:03;;;;;;;27.95;16.67;;;4.50;99.90;;;;;;8298288;28;20053;-76
2020/12/21 04:19:03;;;;;;;30.92;17.92;;;4.60;99.90;;;;;;8298138;28;20105;-75
2020/12/21 04:23:04;;;;;;;31.75;18.23;;;4.30;99.90;;;;;;8297059;28;20037;-75
2020/12/21 04:27:04;;;;;;;36.58;19.85;;;4.20;99.90;;;;;;8296719;28;20021;-75
2020/12/21 04:31:06;;;;;;;38.95;19.38;;;4.10;99.90;;;;;;8297089;28;20026;-75
2020/12/21 04:35:07;;;;;;;33.47;18.48;;;4.10;99.90;;;;;;8297324;28;20025;-76
2020/12/21 04:39:07;;;;;;;30.10;18.00;;;4.10;99.90;;;;;;8294670;28;20062;-76
2020/12/21 04:43:09;;;;;;;35.35;17.63;;;4.10;99.90;;;;;;8295794;28;20025;-76
2020/12/21 04:47:10;;;;;;;30.52;17.00;;;4.30;99.90;;;;;;8297071;28;20108;-76
2020/12/21 04:51:11;;;;;;;32.13;17.02;;;4.20;99.90;;;;;;8311082;28;20033;-75
2020/12/21 04:55:20;;;;;;;51.33;16.35;;;4.20;99.90;;;;;;8294853;28;20033;-75
2020/12/21 04:59:21;;;;;;;284.33;16.57;;;3.90;99.90;;;;;;8293593;28;20073;-76
2020/12/21 05:03:21;;;;;;;38.05;19.40;;;3.60;99.90;;;;;;8291227;28;20081;-75
2020/12/21 05:07:31;;;;;;;31.23;17.13;;;3.50;99.90;;;;;;8295248;28;20038;-75
2020/12/21 05:11:33;;;;;;;30.02;16.13;;;3.50;99.90;;;;;;8295148;28;20041;-76
2020/12/21 05:15:34;;;;;;;39.28;15.85;;;3.30;99.90;;;;;;8297000;28;20042;-75
2020/12/21 05:19:35;;;;;;;51.88;15.57;;;3.30;99.90;;;;;;8295114;28;20399;-75
2020/12/21 05:23:35;;;;;;;330.80;21.60;;;3.20;99.90;;;;;;8311962;28;20041;-76
2020/12/21 05:27:36;;;;;;;230.40;18.60;;;3.20;99.90;;;;;;8294906;28;20022;-74
2020/12/21 05:31:48;;;;;;;91.95;13.20;;;3.30;99.90;;;;;;8279311;28;20026;-75
2020/12/21 05:35:49;;;;;;;76.82;12.52;;;3.20;99.90;;;;;;8280797;28;20415;-75
2020/12/21 05:39:54;;;;;;;180.43;16.63;;;3.10;99.90;;;;;;8295639;28;20025;-75
2020/12/21 05:43:59;;;;;;;61.20;12.38;;;2.80;99.90;;;;;;8295513;28;20037;-75
2020/12/21 05:48:01;;;;;;;69.20;15.40;;;3.10;99.90;;;;;;8292996;28;20034;-74
2020/12/21 05:52:12;;;;;;;25.02;13.73;;;2.90;99.90;;;;;;8309293;28;20037;-79
2020/12/21 05:56:12;;;;;;;22.83;12.95;;;3.00;99.90;;;;;;8295692;28;20036;-74
2020/12/21 06:00:14;;;;;;;26.40;13.43;;;2.90;99.90;;;;;;8295799;28;20057;-74
2020/12/21 06:04:18;;;;;;;61.13;15.15;;;2.70;99.90;;;;;;8311100;28;20154;-75
2020/12/21 06:08:19;;;;;;;109.90;15.80;;;2.60;99.90;;;;;;8267801;28;20035;-75
2020/12/21 06:12:22;;;;;;;93.68;17.33;;;2.50;99.90;;;;;;8262948;28;20050;-75
2020/12/21 06:16:23;;;;;;;163.27;16.73;;;3.00;99.90;;;;;;8263109;28;20496;-75
2020/12/21 06:20:24;;;;;;;100.22;14.70;;;3.00;99.90;;;;;;8277864;28;20033;-74
2020/12/21 06:24:26;;;;;;;115.72;17.75;;;3.00;99.90;;;;;;8272427;28;20062;-75
2020/12/21 06:28:28;;;;;;;56.85;14.68;;;3.10;99.90;;;;;;8310347;28;20065;-75
2020/12/21 06:32:31;;;;;;;62.15;15.05;;;2.80;99.90;;;;;;8297524;28;20025;-75
2020/12/21 06:36:32;;;;;;;52.00;14.55;;;2.80;99.90;;;;;;8310252;28;20025;-72
2020/12/21 06:40:35;;;;;;;60.88;13.23;;;2.80;99.90;;;;;;8310074;28;20101;-71
2020/12/21 06:44:38;;;;;;;35.22;13.80;;;2.80;99.90;;;;;;8309547;28;20014;-72
2020/12/21 06:48:39;;;;;;;45.75;11.45;;;2.70;99.90;;;;;;8298587;28;20249;-72
2020/12/21 06:52:41;;;;;;;46.95;12.80;;;2.60;99.90;;;;;;8293208;28;20040;-72
2020/12/21 06:56:43;;;;;;;71.82;15.43;;;2.70;99.90;;;;;;8293780;28;20061;-73
2020/12/21 07:00:44;;;;;;;80.35;14.23;;;2.80;99.90;;;;;;8292170;28;20022;-72
2020/12/21 07:04:45;;;;;;;52.78;13.50;;;2.70;99.90;;;;;;8291976;28;20033;-73
2020/12/21 07:08:47;;;;;;;95.90;13.52;;;2.70;99.90;;;;;;8292408;28;20022;-73
2020/12/21 07:12:50;;;;;;;153.18;15.45;;;2.70;99.90;;;;;;8296872;28;20369;-70
2020/12/21 07:17:10;;;;;;;180.63;16.17;;;2.80;99.90;;;;;;8298333;28;20121;-71
2020/12/21 07:21:12;;;;;;;53.05;13.95;;;2.80;99.90;;;;;;8296431;28;20018;-71
2020/12/21 07:25:12;;;;;;;130.20;16.60;;;2.80;99.90;;;;;;8299628;28;20526;-71
2020/12/21 07:29:13;;;;;;;54.22;15.48;;;2.90;99.90;;;;;;8298970;28;20033;-71
2020/12/21 07:33:14;;;;;;;60.38;15.80;;;3.00;99.90;;;;;;8295332;28;20056;-70
2020/12/21 07:37:15;;;;;;;109.43;28.98;;;2.90;99.90;;;;;;8295057;28;20403;-73
2020/12/21 07:41:18;;;;;;;111.53;22.92;;;3.00;99.90;;;;;;8298473;28;20084;-73
2020/12/21 07:45:21;;;;;;;139.05;25.67;;;3.30;99.90;;;;;;8299000;28;20022;-73
2020/12/21 07:49:23;;;;;;;113.93;22.08;;;3.30;99.90;;;;;;8299121;28;20057;-75
2020/12/21 07:53:24;;;;;;;184.05;22.23;;;3.40;99.90;;;;;;8312926;28;20030;-73
2020/12/21 07:57:29;;;;;;;135.40;22.85;;;3.60;99.90;;;;;;8297235;28;20030;-72
2020/12/21 08:01:33;;;;;;;72.50;22.33;;;3.70;99.90;;;;;;8298040;28;20018;-73
2020/12/21 08:05:33;;;;;;;86.47;23.08;;;3.70;99.90;;;;;;8297902;28;20021;-72
2020/12/21 08:09:37;;;;;;;105.15;21.50;;;3.60;99.90;;;;;;8297238;28;20112;-73
2020/12/21 08:13:40;;;;;;;60.90;20.27;;;3.80;99.90;;;;;;8294888;28;20407;-73
2020/12/21 08:17:41;;;;;;;43.63;18.30;;;4.00;99.90;;;;;;8296262;28;20026;-72
2020/12/21 08:21:41;;;;;;;45.65;19.38;;;4.00;99.90;;;;;;8297281;28;20025;-73
2020/12/21 08:25:42;;;;;;;36.80;18.75;;;4.10;99.90;;;;;;8313146;28;20029;-72
2020/12/21 08:29:42;;;;;;;52.65;19.80;;;4.10;99.90;;;;;;8297568;28;20173;-73
2020/12/21 08:34:07;;;;;;;61.53;21.13;;;4.20;99.90;;;;;;8297158;28;20030;-73
2020/12/21 08:38:14;;;;;;;57.92;21.50;;;4.20;99.90;;;;;;8296409;28;20026;-73
2020/12/21 08:42:14;;;;;;;36.70;17.17;;;4.30;99.90;;;;;;8295416;28;20030;-73
2020/12/21 08:46:15;;;;;;;40.28;18.73;;;4.50;99.90;;;;;;8287100;28;20118;-75
2020/12/21 08:50:15;;;;;;;31.85;17.30;;;4.50;99.90;;;;;;8293667;28;20021;-72
2020/12/21 08:54:16;;;;;;;37.00;16.52;;;4.40;99.90;;;;;;8267108;28;20030;-73
2020/12/21 08:58:17;;;;;;;48.58;19.42;;;4.50;99.90;;;;;;8264749;28;20030;-73
2020/12/21 09:02:17;;;;;;;27.67;15.15;;;4.40;99.90;;;;;;8264483;28;20030;-72
2020/12/21 09:06:20;;;;;;;30.35;16.83;;;4.40;99.90;;;;;;8278765;28;20037;-73
2020/12/21 09:10:20;;;;;;;51.05;15.70;;;4.60;99.90;;;;;;8294852;28;20583;-73
2020/12/21 09:14:24;;;;;;;24.88;14.25;;;4.60;99.90;;;;;;8295984;28;20022;-72
2020/12/21 09:18:24;;;;;;;42.65;15.95;;;4.70;99.90;;;;;;8291782;28;20033;-73
2020/12/21 09:22:26;;;;;;;29.42;16.02;;;4.70;99.90;;;;;;8293779;28;20026;-71
2020/12/21 09:26:27;;;;;;;36.95;21.15;;;4.80;99.90;;;;;;8309063;28;20091;-71
2020/12/21 09:30:27;;;;;;;24.13;15.98;;;4.90;99.90;;;;;;8290636;28;20553;-71
2020/12/21 09:34:28;;;;;;;22.50;15.20;;;5.00;99.90;;;;;;8286053;28;20030;-71
2020/12/21 09:38:29;;;;;;;31.52;15.18;;;5.40;99.90;;;;;;8286596;28;20041;-72
2020/12/21 09:42:29;;;;;;;24.42;15.45;;;5.30;99.90;;;;;;8268028;28;20023;-71
2020/12/21 09:46:30;;;;;;;21.52;14.35;;;5.10;99.90;;;;;;8263167;28;20056;-72
2020/12/21 09:50:30;;;;;;;31.38;15.25;;;5.30;99.90;;;;;;8267024;28;20025;-70
2020/12/21 09:54:31;;;;;;;24.23;15.88;;;5.60;99.90;;;;;;8290051;28;20033;-71
2020/12/21 09:58:31;;;;;;;31.13;15.25;;;5.70;99.90;;;;;;8309605;28;20034;-71
2020/12/21 10:02:32;;;;;;;35.38;14.93;;;5.80;99.90;;;;;;8290643;28;20080;-71
2020/12/21 10:06:33;;;;;;;25.90;14.57;;;5.90;99.90;;;;;;8279193;28;20466;-72
2020/12/21 10:10:33;;;;;;;23.00;14.80;;;5.80;99.90;;;;;;8261318;28;20049;-71
2020/12/21 10:14:34;;;;;;;22.30;14.00;;;5.90;99.90;;;;;;8260462;28;20022;-71
2020/12/21 10:18:34;;;;;;;20.75;13.75;;;5.90;99.90;;;;;;8260773;28;20650;-72
2020/12/21 10:22:35;;;;;;;21.17;13.95;;;6.00;99.90;;;;;;8266411;28;20030;-72
2020/12/21 10:26:40;;;;;;;21.48;13.88;;;6.10;99.90;;;;;;8260763;28;20030;-70
2020/12/21 10:30:40;;;;;;;25.45;13.75;;;6.00;99.90;;;;;;8283467;28;20064;-73
2020/12/21 10:34:41;;;;;;;22.00;13.25;;;6.00;99.90;;;;;;8290133;28;20022;-73
2020/12/21 10:38:42;;;;;;;21.42;13.68;;;6.10;99.90;;;;;;8291698;28;20483;-73
2020/12/21 10:42:42;;;;;;;24.92;14.55;;;6.00;99.90;;;;;;8294260;28;20098;-73
2020/12/21 10:46:43;;;;;;;21.25;13.77;;;6.00;99.90;;;;;;8292200;28;20038;-73
2020/12/21 10:50:45;;;;;;;24.98;15.43;;;6.00;99.90;;;;;;8287956;28;20487;-73
2020/12/21 10:54:46;;;;;;;28.27;13.20;;;6.00;99.90;;;;;;8288688;28;20018;-73
2020/12/21 10:58:46;;;;;;;26.98;14.40;;;6.00;99.90;;;;;;8280947;28;20026;-73
2020/12/21 11:02:47;;;;;;;33.33;14.00;;;6.10;99.90;;;;;;8291307;28;20020;-73
2020/12/21 11:06:47;;;;;;;35.47;13.25;;;6.10;99.90;;;;;;8293502;28;20033;-73
2020/12/21 11:10:48;;;;;;;33.33;14.07;;;6.40;99.90;;;;;;8308723;28;20128;-73
2020/12/21 11:14:49;;;;;;;49.00;15.35;;;6.70;99.90;;;;;;8292478;28;20022;-73
2020/12/21 11:18:50;;;;;;;27.70;15.85;;;6.80;99.90;;;;;;8271750;28;20032;-73
2020/12/21 11:22:50;;;;;;;54.28;14.82;;;6.90;99.90;;;;;;8261134;28;20377;-73
2020/12/21 11:26:51;;;;;;;35.92;16.30;;;6.70;99.90;;;;;;8302302;28;20475;-74
2020/12/21 11:30:52;;;;;;;45.45;15.25;;;6.80;99.90;;;;;;8281094;28;20442;-70
2020/12/21 11:34:52;;;;;;;51.88;17.48;;;6.50;99.90;;;;;;8292577;28;20034;-70
2020/12/21 11:38:53;;;;;;;56.65;18.13;;;6.70;99.90;;;;;;8291454;28;20026;-71
2020/12/21 11:42:53;;;;;;;34.15;18.77;;;6.50;99.90;;;;;;8290141;28;20062;-71
2020/12/21 11:46:54;;;;;;;42.40;18.60;;;6.60;99.90;;;;;;8287443;28;20032;-71
2020/12/21 11:50:54;;;;;;;24.02;14.73;;;6.70;99.90;;;;;;8296975;28;20026;-69
2020/12/21 11:54:55;;;;;;;18.77;12.00;;;6.80;99.90;;;;;;8297729;28;20111;-72
2020/12/21 11:58:55;;;;;;;20.30;12.13;;;6.60;99.90;;;;;;8284541;28;20134;-72
2020/12/21 12:02:56;;;;;;;20.65;12.60;;;6.70;99.90;;;;;;8265947;28;20060;-71
2020/12/21 12:07:00;;;;;;;26.65;14.70;;;6.60;99.90;;;;;;8285970;28;20491;-72
2020/12/21 12:11:02;;;;;;;20.95;13.18;;;6.80;99.90;;;;;;8277790;28;20078;-71
2020/12/21 12:15:03;;;;;;;23.58;14.35;;;6.80;99.90;;;;;;8286106;28;20549;-71
2020/12/21 12:19:03;;;;;;;20.75;12.73;;;6.90;99.90;;;;;;8296581;28;20083;-71
2020/12/21 12:23:04;;;;;;;20.50;12.65;;;7.10;99.90;;;;;;8297373;28;20018;-71
2020/12/21 12:27:04;;;;;;;19.08;12.20;;;7.00;99.90;;;;;;8313355;28;20076;-71
2020/12/21 12:31:05;;;;;;;16.73;10.85;;;7.20;99.90;;;;;;8312556;28;20622;-71
2020/12/21 12:35:05;;;;;;;17.75;12.02;;;7.40;99.90;;;;;;8296186;28;20054;-71
2020/12/21 12:39:07;;;;;;;17.40;11.40;;;7.20;99.90;;;;;;8289268;28;20480;-71
2020/12/21 12:43:07;;;;;;;17.90;11.18;;;7.20;99.90;;;;;;8296833;28;20020;-71
2020/12/21 12:47:08;;;;;;;15.05;10.82;;;7.10;99.90;;;;;;8297253;28;20488;-71
2020/12/21 12:51:11;;;;;;;17.08;11.13;;;7.10;99.90;;;;;;8296034;28;20029;-70
2020/12/21 12:55:12;;;;;;;19.27;11.65;;;7.00;99.90;;;;;;8295876;28;20037;-71
2020/12/21 12:59:13;;;;;;;17.95;11.68;;;7.20;99.90;;;;;;8295330;28;20030;-71
2020/12/21 13:03:14;;;;;;;17.80;11.60;;;7.30;99.90;;;;;;8291667;28;20061;-71
2020/12/21 13:07:14;;;;;;;20.30;12.35;;;7.30;99.90;;;;;;8295311;28;20037;-71
2020/12/21 13:11:15;;;;;;;24.25;15.40;;;7.30;99.90;;;;;;8295168;28;20507;-72
2020/12/21 13:15:15;;;;;;;21.13;14.07;;;7.40;99.90;;;;;;8301869;28;20030;-71
2020/12/21 13:19:16;;;;;;;17.13;12.52;;;7.50;99.90;;;;;;8294665;28;20034;-70
2020/12/21 13:23:17;;;;;;;20.40;12.70;;;7.70;99.90;;;;;;8293941;28;20108;-71
2020/12/21 13:27:17;;;;;;;18.92;12.52;;;7.80;99.90;;;;;;8294664;28;20045;-71
2020/12/21 13:31:20;;;;;;;22.60;12.95;;;7.60;99.90;;;;;;8310746;28;20036;-71
2020/12/21 13:35:21;;;;;;;20.27;13.27;;;7.40;99.90;;;;;;8294555;28;20029;-70
2020/12/21 13:39:23;;;;;;;18.65;12.45;;;7.20;99.90;;;;;;8291987;28;20022;-71
2020/12/21 13:43:23;;;;;;;27.85;16.63;;;7.10;99.90;;;;;;8293006;28;20395;-71
2020/12/21 13:47:24;;;;;;;21.90;14.77;;;7.10;99.90;;;;;;8294912;28;20073;-70
2020/12/21 13:51:26;;;;;;;24.20;15.65;;;7.00;99.90;;;;;;8294425;28;20091;-71
2020/12/21 13:55:26;;;;;;;26.42;16.58;;;7.00;99.90;;;;;;8295271;28;20108;-71
2020/12/21 13:59:27;;;;;;;28.27;18.23;;;7.00;99.90;;;;;;8293105;28;20030;-71
2020/12/21 14:03:27;;;;;;;22.95;15.15;;;7.00;99.90;;;;;;8294275;28;20442;-71
2020/12/21 14:07:29;;;;;;;25.83;17.52;;;7.00;99.90;;;;;;8292170;28;20458;-71
2020/12/21 14:11:31;;;;;;;29.58;21.35;;;7.00;99.90;;;;;;8292779;28;20049;-71
2020/12/21 14:15:31;;;;;;;31.38;18.88;;;6.90;99.90;;;;;;8292555;28;20100;-71
2020/12/21 14:19:32;;;;;;;20.13;13.77;;;6.90;99.90;;;;;;8277237;28;20428;-71
2020/12/21 14:23:32;;;;;;;23.42;16.80;;;6.90;99.90;;;;;;8277503;28;20014;-71
2020/12/21 14:27:33;;;;;;;20.08;13.80;;;6.90;99.90;;;;;;8288726;28;20025;-71
2020/12/21 14:31:38;;;;;;;18.15;13.38;;;7.00;99.90;;;;;;8281814;28;20109;-71
2020/12/21 14:35:39;;;;;;;21.92;15.35;;;6.90;99.90;;;;;;8291169;28;20030;-71
2020/12/21 14:39:39;;;;;;;27.77;18.00;;;6.80;99.90;;;;;;8281818;28;20589;-71
2020/12/21 14:43:40;;;;;;;22.33;16.05;;;6.80;99.90;;;;;;8264500;28;20046;-71
2020/12/21 14:47:40;;;;;;;21.33;15.43;;;6.90;99.90;;;;;;8288713;28;20030;-70
2020/12/21 14:51:41;;;;;;;21.98;14.20;;;6.90;99.90;;;;;;8261644;28;20041;-71
2020/12/21 14:55:41;;;;;;;20.90;14.25;;;6.80;99.90;;;;;;8261880;28;20030;-71
2020/12/21 14:59:42;;;;;;;20.58;13.70;;;6.90;99.90;;;;;;8263643;28;20045;-71
2020/12/21 15:03:43;;;;;;;22.05;14.18;;;6.70;99.90;;;;;;8279474;28;20038;-71
2020/12/21 15:07:43;;;;;;;18.73;12.77;;;6.50;99.90;;;;;;8281631;28;20030;-71
2020/12/21 15:11:44;;;;;;;20.42;13.38;;;6.50;99.90;;;;;;8284393;28;20026;-71
2020/12/21 15:15:44;;;;;;;16.58;11.02;;;6.40;99.90;;;;;;8269396;28;20123;-71
2020/12/21 15:19:45;;;;;;;25.52;16.95;;;6.30;99.90;;;;;;8301500;28;20022;-76
2020/12/21 15:23:47;;;;;;;32.08;20.48;;;6.30;99.90;;;;;;8301987;28;20030;-79
2020/12/21 15:27:48;;;;;;;48.88;28.77;;;6.30;99.90;;;;;;8293747;28;20034;-78
2020/12/21 15:31:50;;;;;;;16.17;11.88;;;6.30;99.90;;;;;;8298210;28;20045;-77
2020/12/21 15:35:54;;;;;;;6.50;4.72;;;6.50;99.90;;;;;;8301473;28;20081;-78
2020/12/21 15:39:55;;;;;;;8.88;5.13;;;6.80;99.90;;;;;;8276129;28;20077;-78
2020/12/21 15:43:56;;;;;;;11.65;6.20;;;6.70;99.90;;;;;;8291293;28;20408;-78
2020/12/21 15:47:57;;;;;;;8.55;5.97;;;6.60;99.90;;;;;;8291771;28;20033;-73
2020/12/21 15:52:02;;;;;;;25.52;18.88;;;6.50;99.90;;;;;;8311151;28;20040;-75
2020/12/21 15:56:02;;;;;;;16.17;10.35;;;6.40;99.90;;;;;;8281107;28;20038;-77
2020/12/21 16:00:04;;;;;;;16.08;9.73;;;6.30;99.90;;;;;;8266420;28;20104;-78
2020/12/21 16:04:05;;;;;;;10.73;5.75;;;6.40;99.90;;;;;;8299210;28;20034;-76
2020/12/21 16:08:05;;;;;;;40.80;25.10;;;6.60;99.90;;;;;;8292542;28;20044;-77
2020/12/21 16:12:06;;;;;;;21.23;13.32;;;6.30;99.90;;;;;;8280947;28;20034;-76
2020/12/21 16:16:07;;;;;;;13.70;9.23;;;6.10;99.90;;;;;;8298596;28;20057;-72
2020/12/21 16:20:07;;;;;;;20.70;13.15;;;6.30;99.90;;;;;;8296978;28;20041;-75
2020/12/21 16:24:09;;;;;;;19.88;9.82;;;6.20;99.90;;;;;;8297320;28;20025;-74
2020/12/21 16:28:10;;;;;;;14.55;9.18;;;6.20;99.90;;;;;;8298844;28;20026;-78
2020/12/21 16:32:10;;;;;;;17.27;9.52;;;6.30;99.90;;;;;;8298522;28;20036;-75
2020/12/21 16:36:11;;;;;;;12.73;8.60;;;6.10;99.90;;;;;;8296497;28;20368;-77
2020/12/21 16:40:13;;;;;;;22.40;15.18;;;6.10;99.90;;;;;;8311723;28;20030;-76
2020/12/21 16:44:13;;;;;;;25.58;15.98;;;6.20;99.90;;;;;;8295132;28;20466;-74
2020/12/21 16:48:14;;;;;;;25.98;16.05;;;6.10;99.90;;;;;;8287110;28;20034;-74
2020/12/21 16:52:15;;;;;;;30.42;16.27;;;6.10;99.90;;;;;;8291595;28;20030;-74
2020/12/21 16:56:24;;;;;;;41.90;25.15;;;6.20;99.90;;;;;;8287778;28;20034;-76
2020/12/21 17:00:24;;;;;;;47.65;27.70;;;6.10;99.90;;;;;;8283840;28;20038;-76
2020/12/21 17:04:25;;;;;;;47.25;24.25;;;6.10;99.90;;;;;;8282431;28;20648;-76
2020/12/21 17:08:25;;;;;;;36.97;22.65;;;6.10;99.90;;;;;;8292238;28;20072;-76
2020/12/21 17:12:26;;;;;;;18.73;11.05;;;6.10;99.90;;;;;;8281783;28;20021;-76
2020/12/21 17:16:27;;;;;;;21.08;11.45;;;6.30;99.90;;;;;;8311883;28;20030;-76
2020/12/21 17:20:27;;;;;;;11.55;6.65;;;6.70;99.90;;;;;;8296708;28;20739;-76
2020/12/21 17:24:28;;;;;;;23.83;18.42;;;6.80;99.90;;;;;;8295243;28;20022;-76
2020/12/21 17:28:28;;;;;;;9.85;6.68;;;6.90;99.90;;;;;;8311595;28;20026;-76
2020/12/21 17:32:30;;;;;;;7.28;3.75;;;7.10;99.90;;;;;;8280129;28;20495;-75
2020/12/21 17:36:30;;;;;;;6.93;4.03;;;7.10;99.90;;;;;;8291064;28;20045;-76
2020/12/21 17:40:32;;;;;;;9.05;5.03;;;7.20;99.90;;;;;;8282203;28;20015;-76
2020/12/21 17:44:33;;;;;;;7.47;4.43;;;7.20;99.90;;;;;;8270920;28;20109;-75
2020/12/21 17:48:33;;;;;;;8.00;4.45;;;7.20;99.90;;;;;;8280860;28;20037;-76
2020/12/21 17:52:39;;;;;;;12.50;4.68;;;7.30;99.90;;;;;;8257690;28;20030;-76
2020/12/21 17:56:39;;;;;;;6.25;3.80;;;7.20;99.90;;;;;;8273567;28;20117;-76
2020/12/21 18:00:41;;;;;;;5.72;3.03;;;7.20;99.90;;;;;;8271177;28;20500;-75
2020/12/21 18:04:42;;;;;;;5.30;2.97;;;7.20;99.90;;;;;;8263349;28;20447;-76
2020/12/21 18:08:42;;;;;;;9.38;5.45;;;7.20;99.90;;;;;;8269141;28;20026;-75
2020/12/21 18:12:45;;;;;;;51.70;23.38;;;7.30;99.90;;;;;;8273777;28;20045;-80
2020/12/21 18:16:46;;;;;;;28.48;15.65;;;7.30;99.90;;;;;;8283247;28;20100;-73
2020/12/21 18:20:46;;;;;;;21.13;12.13;;;7.30;99.90;;;;;;8278481;28;20030;-70
2020/12/21 18:24:47;;;;;;;14.98;8.80;;;7.30;99.90;;;;;;8281654;28;20026;-75
2020/12/21 18:28:48;;;;;;;16.35;11.70;;;7.40;99.90;;;;;;8285406;28;20064;-77
2020/12/21 18:32:49;;;;;;;26.13;13.82;;;7.30;99.90;;;;;;8285871;28;20088;-71
2020/12/21 18:36:50;;;;;;;26.35;15.48;;;7.40;99.90;;;;;;8284890;28;20487;-72
2020/12/21 18:40:50;;;;;;;30.58;18.27;;;7.40;99.90;;;;;;8287632;28;20084;-73
2020/12/21 18:44:51;;;;;;;29.10;18.88;;;7.40;99.90;;;;;;8283836;28;20026;-72
2020/12/21 18:48:52;;;;;;;8.05;5.70;;;7.50;99.90;;;;;;8273652;28;20034;-73
2020/12/21 18:52:57;;;;;;;10.77;5.93;;;7.40;99.90;;;;;;8278028;28;20038;-70
2020/12/21 18:56:57;;;;;;;9.05;7.32;;;7.40;99.90;;;;;;8298454;28;20034;-71
2020/12/21 19:00:58;;;;;;;11.45;6.60;;;7.30;99.90;;;;;;8273083;28;20482;-71
2020/12/21 19:04:58;;;;;;;11.20;6.78;;;7.10;99.90;;;;;;8287634;28;20030;-73
2020/12/21 19:08:59;;;;;;;10.57;7.22;;;7.00;99.90;;;;;;8285434;28;20117;-74
2020/12/21 19:13:00;;;;;;;8.38;6.03;;;6.90;99.90;;;;;;8285292;28;20044;-74
2020/12/21 19:17:00;;;;;;;9.18;5.90;;;7.00;99.90;;;;;;8280646;28;20034;-73
2020/12/21 19:21:02;;;;;;;7.38;5.40;;;7.20;99.90;;;;;;8272519;28;20022;-76
2020/12/21 19:25:03;;;;;;;10.57;6.25;;;7.20;99.90;;;;;;8283240;28;20041;-75
2020/12/21 19:29:04;;;;;;;11.00;6.70;;;7.20;99.90;;;;;;8283468;28;20030;-78
2020/12/21 19:33:05;;;;;;;10.90;7.05;;;7.10;99.90;;;;;;8280626;28;20042;-74
2020/12/21 19:37:06;;;;;;;10.20;6.13;;;7.00;99.90;;;;;;8271487;28;20658;-74
2020/12/21 19:41:07;;;;;;;9.32;6.70;;;7.00;99.90;;;;;;8269614;28;20034;-74
2020/12/21 19:45:08;;;;;;;9.00;5.97;;;7.00;99.90;;;;;;8258846;28;20035;-74
2020/12/21 19:49:09;;;;;;;10.18;6.63;;;6.90;99.90;;;;;;8262878;28;20026;-74
2020/12/21 19:53:10;;;;;;;11.75;6.75;;;6.90;99.90;;;;;;8254927;28;20046;-74
2020/12/21 19:57:11;;;;;;;7.70;5.20;;;6.90;99.90;;;;;;8270495;28;20508;-74
2020/12/21 20:01:11;;;;;;;9.90;5.32;;;6.90;99.90;;;;;;8264133;28;20034;-75
2020/12/21 20:05:13;;;;;;;7.78;5.13;;;6.90;99.90;;;;;;8287332;28;20061;-74
2020/12/21 20:09:14;;;;;;;7.47;4.82;;;7.00;99.90;;;;;;8287374;28;20087;-74
2020/12/21 20:13:14;;;;;;;6.82;5.00;;;7.10;99.90;;;;;;8292050;28;20504;-74
2020/12/21 20:17:15;;;;;;;10.60;4.40;;;7.10;99.90;;;;;;8291165;28;20038;-74
2020/12/21 20:21:16;;;;;;;8.45;4.32;;;7.10;99.90;;;;;;8291074;28;20504;-72
2020/12/21 20:25:17;;;;;;;6.03;3.88;;;7.10;99.90;;;;;;8284948;28;20403;-72
2020/12/21 20:29:18;;;;;;;6.10;3.90;;;7.10;99.90;;;;;;8290280;28;20037;-72
2020/12/21 20:33:19;;;;;;;6.63;4.50;;;7.00;99.90;;;;;;8277860;28;20109;-72
2020/12/21 20:37:19;;;;;;;5.20;3.92;;;7.10;99.90;;;;;;8274807;28;20412;-73
2020/12/21 20:41:21;;;;;;;7.85;4.32;;;7.00;99.90;;;;;;8283323;28;20029;-73